Time;durP1;ratioP1;P1;durP2;ratioP2;P2;SDS_P1;SDS_P2;PMS_P1;PMS_P2;Temp;Humidity;BMP_temperature;BMP_pressure;BME280_temperature;BME280_humidity;BME280_pressure;Samples;Min_cycle;Max_cycle;Signal;HPM_P1;HPM_P2
2021/04/26 00:01:44;;;;;;;16.58;11.57;;;13.80;79.20;;;;;;20749095;28;20053;-50
2021/04/26 00:11:46;;;;;;;15.13;10.68;;;13.90;78.90;;;;;;20748832;28;20054;-49
2021/04/26 00:21:48;;;;;;;14.90;11.00;;;13.90;79.10;;;;;;20748829;28;20057;-49
2021/04/26 00:31:50;;;;;;;14.73;9.60;;;13.70;79.10;;;;;;20760796;28;20120;-50
2021/04/26 00:41:52;;;;;;;16.15;10.15;;;13.70;78.90;;;;;;20763971;28;20056;-51
2021/04/26 00:51:54;;;;;;;15.68;12.02;;;13.70;79.00;;;;;;20762951;28;20093;-50
2021/04/26 01:01:56;;;;;;;19.83;13.80;;;13.70;79.70;;;;;;20762862;28;20045;-50
2021/04/26 01:12:09;;;;;;;15.40;12.63;;;13.70;79.30;;;;;;20761758;28;20072;-49
2021/04/26 01:22:27;;;;;;;16.60;13.27;;;14.00;79.10;;;;;;20761490;28;20050;-50
2021/04/26 01:32:35;;;;;;;14.75;11.23;;;14.00;79.00;;;;;;20760234;28;20053;-50
2021/04/26 01:42:43;;;;;;;9.98;7.93;;;13.90;79.20;;;;;;20759636;28;20057;-50
2021/04/26 01:52:53;;;;;;;14.30;9.35;;;13.90;78.90;;;;;;20757767;28;20050;-49
2021/04/26 02:03:01;;;;;;;14.52;10.13;;;13.80;79.00;;;;;;20758284;28;20073;-50
2021/04/26 02:13:21;;;;;;;14.70;10.05;;;13.70;79.30;;;;;;20756855;28;20054;-49
2021/04/26 02:23:30;;;;;;;13.73;11.00;;;13.70;79.30;;;;;;20756835;28;20054;-49
2021/04/26 02:33:47;;;;;;;15.70;11.20;;;13.70;79.90;;;;;;20755523;28;20083;-51
2021/04/26 02:44:06;;;;;;;16.42;11.27;;;13.70;79.80;;;;;;20754986;28;20112;-49
2021/04/26 02:54:11;;;;;;;17.02;11.07;;;13.70;79.90;;;;;;20751719;28;20061;-50
2021/04/26 03:04:21;;;;;;;16.38;11.85;;;13.60;80.30;;;;;;20753659;28;20175;-49
2021/04/26 03:14:28;;;;;;;16.98;11.30;;;13.70;80.40;;;;;;20752112;28;20091;-50
2021/04/26 03:24:41;;;;;;;14.45;9.98;;;13.60;80.50;;;;;;20751907;28;20050;-49
2021/04/26 03:34:59;;;;;;;20.50;11.15;;;13.60;80.40;;;;;;20750840;28;20417;-49
2021/04/26 03:45:17;;;;;;;11.40;9.18;;;13.60;80.30;;;;;;20750196;28;20107;-49
2021/04/26 03:55:26;;;;;;;12.07;8.93;;;13.60;80.20;;;;;;20749159;28;20050;-49
2021/04/26 04:05:34;;;;;;;14.43;10.43;;;13.40;80.20;;;;;;20748688;28;20057;-49
2021/04/26 04:15:51;;;;;;;14.18;10.35;;;13.50;80.20;;;;;;20747966;28;20560;-49
2021/04/26 04:26:10;;;;;;;17.02;14.00;;;13.50;80.50;;;;;;20748863;28;20053;-49
2021/04/26 04:36:16;;;;;;;13.02;10.27;;;13.60;80.50;;;;;;20748087;28;20057;-50
2021/04/26 04:46:22;;;;;;;14.93;10.10;;;13.60;80.10;;;;;;20746979;28;20052;-50
2021/04/26 04:56:32;;;;;;;15.13;10.38;;;13.60;79.60;;;;;;20746927;28;20045;-49
2021/04/26 05:06:36;;;;;;;18.13;14.00;;;13.70;79.50;;;;;;20747333;28;20050;-50
2021/04/26 05:16:39;;;;;;;19.85;12.75;;;13.70;79.20;;;;;;20755779;28;20486;-50
2021/04/26 05:26:43;;;;;;;19.80;14.68;;;13.60;79.90;;;;;;20761828;28;20088;-49
2021/04/26 05:36:45;;;;;;;16.58;14.23;;;13.70;79.90;;;;;;20759848;28;20046;-50
2021/04/26 05:46:48;;;;;;;22.77;16.00;;;13.60;79.70;;;;;;20759590;28;20049;-49
2021/04/26 05:56:50;;;;;;;23.20;16.65;;;13.70;79.60;;;;;;20758373;28;20050;-49
2021/04/26 06:06:53;;;;;;;24.05;17.92;;;13.70;79.10;;;;;;20757961;28;20452;-49
2021/04/26 06:16:56;;;;;;;27.40;17.92;;;13.80;79.20;;;;;;20755652;28;20413;-49
2021/04/26 06:27:06;;;;;;;24.15;18.67;;;13.70;79.70;;;;;;20755037;28;20092;-50
2021/04/26 06:37:11;;;;;;;23.25;18.20;;;13.80;79.70;;;;;;20754195;28;20147;-49
2021/04/26 06:47:17;;;;;;;26.85;18.80;;;13.90;78.70;;;;;;20754588;28;20053;-49
2021/04/26 06:57:31;;;;;;;29.95;20.15;;;14.00;79.00;;;;;;20752414;28;20088;-50
2021/04/26 07:07:49;;;;;;;27.65;20.02;;;13.90;79.40;;;;;;20752813;28;20061;-49
2021/04/26 07:18:10;;;;;;;27.77;20.13;;;14.00;79.50;;;;;;20751326;28;20145;-49
2021/04/26 07:28:21;;;;;;;29.80;21.85;;;14.10;78.80;;;;;;20752215;28;20077;-50
2021/04/26 07:38:35;;;;;;;30.15;21.55;;;14.20;78.80;;;;;;20749306;28;20053;-50
2021/04/26 07:48:46;;;;;;;31.73;20.77;;;14.20;78.50;;;;;;20750740;28;20053;-49
2021/04/26 07:59:07;;;;;;;33.22;22.42;;;14.30;78.10;;;;;;20750261;28;20487;-51
2021/04/26 08:09:17;;;;;;;44.30;28.05;;;14.40;77.80;;;;;;20748362;28;20453;-50
2021/04/26 08:19:30;;;;;;;39.72;26.70;;;14.40;78.10;;;;;;20748875;28;20148;-51
2021/04/26 08:29:52;;;;;;;52.13;28.30;;;14.60;78.00;;;;;;20748700;28;20133;-50
2021/04/26 08:40:08;;;;;;;44.05;29.15;;;14.70;77.50;;;;;;20747378;28;20050;-51
2021/04/26 08:50:18;;;;;;;45.13;28.90;;;14.70;77.10;;;;;;20756422;28;20144;-49
2021/04/26 09:00:40;;;;;;;44.28;29.48;;;14.90;76.90;;;;;;20762877;28;20054;-50
2021/04/26 09:11:01;;;;;;;40.28;27.15;;;15.10;76.40;;;;;;20761720;28;20054;-50
2021/04/26 09:21:24;;;;;;;24.55;15.98;;;15.30;75.90;;;;;;20759086;28;20089;-51
2021/04/26 09:31:41;;;;;;;21.38;13.35;;;15.60;72.40;;;;;;20751605;28;20414;-46
2021/04/26 09:41:54;;;;;;;23.08;16.10;;;16.30;68.40;;;;;;20757201;28;20446;-49
2021/04/26 09:52:14;;;;;;;20.60;13.38;;;16.80;68.30;;;;;;20746950;28;20062;-52
2021/04/26 10:02:17;;;;;;;23.48;13.43;;;17.20;66.10;;;;;;20738849;28;20441;-49
2021/04/26 10:12:22;;;;;;;16.48;11.40;;;17.30;66.60;;;;;;20755094;28;20053;-50
2021/04/26 10:22:37;;;;;;;15.30;10.05;;;17.40;66.60;;;;;;20753542;28;20132;-51
2021/04/26 10:32:58;;;;;;;14.05;9.63;;;17.80;65.50;;;;;;20752783;28;20494;-49
2021/04/26 10:43:27;;;;;;;18.30;9.93;;;18.10;64.20;;;;;;20754385;28;20054;-50
2021/04/26 10:53:46;;;;;;;16.77;10.10;;;18.20;63.70;;;;;;20743682;28;20394;-51
2021/04/26 11:04:05;;;;;;;14.15;8.93;;;18.70;62.60;;;;;;20752220;28;20049;-50
2021/04/26 11:14:08;;;;;;;12.80;7.72;;;18.70;61.10;;;;;;20741187;28;20403;-49
2021/04/26 11:24:31;;;;;;;12.55;6.93;;;19.00;60.80;;;;;;20692208;28;20136;-51
2021/04/26 11:35:12;;;;;;;7.40;5.43;;;19.00;60.60;;;;;;20660622;28;20173;-45
2021/04/26 11:45:12;;;;;;;8.13;4.93;;;19.20;58.80;;;;;;20680913;28;20058;-52
2021/04/26 11:55:17;;;;;;;7.38;3.63;;;19.30;58.50;;;;;;20747529;28;20061;-50
2021/04/26 12:05:21;;;;;;;5.35;3.28;;;19.40;56.70;;;;;;20749318;28;20409;-52
2021/04/26 12:15:25;;;;;;;5.20;2.85;;;19.40;54.50;;;;;;20748000;28;20054;-52
2021/04/26 12:25:34;;;;;;;;;;;19.20;54.40;;;;;;20758148;28;20053;-53
2021/04/26 12:35:38;;;;;;;4.25;2.83;;;19.30;53.00;;;;;;20764075;28;19921;-53
2021/04/26 12:45:49;;;;;;;5.15;2.42;;;19.50;53.00;;;;;;20763914;28;20113;-51
2021/04/26 12:56:14;;;;;;;4.03;2.10;;;19.50;53.50;;;;;;20762424;28;20140;-52
2021/04/26 13:06:35;;;;;;;4.47;2.47;;;19.80;50.90;;;;;;20762603;28;20062;-51
2021/04/26 13:16:40;;;;;;;4.43;2.03;;;20.20;50.00;;;;;;20760128;28;20061;-51
2021/04/26 13:27:03;;;;;;;4.85;2.13;;;20.40;49.90;;;;;;20760249;28;20050;-52
2021/04/26 13:37:07;;;;;;;6.50;2.03;;;20.70;48.30;;;;;;20759337;28;20058;-51
2021/04/26 13:47:09;;;;;;;;;;;20.60;48.90;;;;;;20759771;28;20101;-52
2021/04/26 13:57:12;;;;;;;4.88;2.03;;;20.60;47.80;;;;;;20757759;28;19975;-53
2021/04/26 14:07:16;;;;;;;4.07;1.50;;;20.80;48.10;;;;;;20758212;28;20057;-51
2021/04/26 14:17:30;;;;;;;;;;;20.90;47.00;;;;;;20755879;28;20482;-52
2021/04/26 14:27:33;;;;;;;4.00;1.70;;;20.60;47.50;;;;;;20755799;28;19990;-52
2021/04/26 14:37:37;;;;;;;2.60;1.52;;;20.60;48.20;;;;;;20754479;28;20056;-52
2021/04/26 14:47:42;;;;;;;2.80;1.10;;;20.40;47.30;;;;;;20753502;28;20557;-52
2021/04/26 14:57:45;;;;;;;4.68;1.48;;;20.30;47.40;;;;;;20753203;28;20462;-52
2021/04/26 15:07:50;;;;;;;3.63;1.38;;;20.40;47.10;;;;;;20752138;28;20050;-53
2021/04/26 15:17:56;;;;;;;2.42;1.08;;;20.30;46.70;;;;;;20749520;28;20061;-53
2021/04/26 15:28:02;;;;;;;3.05;1.65;;;20.70;46.10;;;;;;20751444;28;20516;-52
2021/04/26 15:38:06;;;;;;;3.73;1.20;;;20.90;45.10;;;;;;20749795;28;20061;-52
2021/04/26 15:48:10;;;;;;;2.55;1.33;;;20.90;46.10;;;;;;20748028;28;20091;-53
2021/04/26 15:58:18;;;;;;;4.25;1.70;;;20.90;46.10;;;;;;20748289;28;20050;-53
2021/04/26 16:08:20;;;;;;;2.70;1.38;;;21.10;46.80;;;;;;20746590;28;20132;-50
2021/04/26 16:18:22;;;;;;;2.92;1.30;;;20.70;47.70;;;;;;20718921;28;20629;-50
2021/04/26 16:28:23;;;;;;;2.03;1.30;;;20.40;48.20;;;;;;20702376;28;20042;-50
2021/04/26 16:38:25;;;;;;;1.98;1.30;;;20.30;48.40;;;;;;20726854;28;20045;-49
2021/04/26 16:48:30;;;;;;;3.03;1.17;;;20.20;48.20;;;;;;20741381;28;20415;-49
2021/04/26 16:58:32;;;;;;;6.55;1.55;;;20.20;48.20;;;;;;20745272;28;20069;-49
2021/04/26 17:08:34;;;;;;;3.07;1.90;;;20.10;48.00;;;;;;20734762;28;20084;-49
2021/04/26 17:18:36;;;;;;;5.53;2.25;;;20.10;47.80;;;;;;20717224;28;20157;-49
2021/04/26 17:28:38;;;;;;;2.92;1.40;;;20.10;47.20;;;;;;20717883;28;20049;-48
2021/04/26 17:38:40;;;;;;;2.13;1.38;;;20.00;47.60;;;;;;20726560;28;20073;-49
2021/04/26 17:48:42;;;;;;;2.00;1.20;;;20.00;48.30;;;;;;20715529;28;20089;-50
2021/04/26 17:58:44;;;;;;;3.92;1.30;;;19.90;47.40;;;;;;20753689;28;20438;-51
2021/04/26 18:08:46;;;;;;;2.45;1.23;;;19.80;47.20;;;;;;20747866;28;20062;-52
2021/04/26 18:18:50;;;;;;;2.97;1.40;;;19.70;47.10;;;;;;20713789;28;20109;-50
2021/04/26 18:28:53;;;;;;;4.60;1.90;;;19.70;47.30;;;;;;20730756;28;20052;-52
2021/04/26 18:38:55;;;;;;;2.93;1.50;;;19.50;47.50;;;;;;20726783;28;20042;-50
2021/04/26 18:48:57;;;;;;;10.52;3.60;;;19.40;49.90;;;;;;20709613;28;20077;-51
2021/04/26 18:59:00;;;;;;;4.18;1.98;;;19.40;50.10;;;;;;20711634;28;20065;-51
2021/04/26 19:09:01;;;;;;;8.60;5.10;;;19.30;51.20;;;;;;20723942;28;20411;-53
2021/04/26 19:19:03;;;;;;;6.53;3.50;;;19.20;51.70;;;;;;20750153;28;20461;-53
2021/04/26 19:29:08;;;;;;;5.00;2.33;;;19.10;52.20;;;;;;20750494;28;20136;-52
2021/04/26 19:39:10;;;;;;;4.53;2.13;;;19.00;52.60;;;;;;20748967;28;20112;-53
2021/04/26 19:49:12;;;;;;;7.07;2.75;;;19.00;52.80;;;;;;20749506;28;20061;-54
2021/04/26 19:59:14;;;;;;;3.75;2.00;;;18.90;52.90;;;;;;20749185;28;20378;-53
2021/04/26 20:09:16;;;;;;;3.72;2.33;;;18.80;53.10;;;;;;20748396;28;20503;-54
2021/04/26 20:19:20;;;;;;;7.07;3.97;;;18.70;53.00;;;;;;20747190;28;20053;-54
2021/04/26 20:29:25;;;;;;;5.18;2.90;;;18.70;53.50;;;;;;20746487;28;20053;-53
2021/04/26 20:39:27;;;;;;;5.38;2.60;;;18.60;54.30;;;;;;20746767;28;20414;-53
2021/04/26 20:49:29;;;;;;;4.55;2.10;;;18.40;56.30;;;;;;20759337;28;20046;-52
2021/04/26 20:59:31;;;;;;;4.82;2.47;;;18.30;58.30;;;;;;20762873;28;20100;-51
2021/04/26 21:09:33;;;;;;;6.05;2.40;;;18.20;59.20;;;;;;20761988;28;20061;-53
2021/04/26 21:19:35;;;;;;;3.60;2.05;;;18.00;59.20;;;;;;20761203;28;20064;-53
2021/04/26 21:29:37;;;;;;;4.53;2.30;;;17.90;58.70;;;;;;20760041;28;20552;-51
2021/04/26 21:39:40;;;;;;;4.82;2.58;;;17.70;59.20;;;;;;20760409;28;20092;-53
2021/04/26 21:49:42;;;;;;;4.43;2.42;;;17.70;59.10;;;;;;20759011;28;20057;-54
2021/04/26 21:59:43;;;;;;;5.55;2.42;;;17.70;59.00;;;;;;20759207;28;20057;-53
2021/04/26 22:09:45;;;;;;;4.55;2.40;;;17.60;59.60;;;;;;20757376;28;20466;-53
2021/04/26 22:19:47;;;;;;;8.48;3.28;;;17.40;60.50;;;;;;20757978;28;20053;-54
2021/04/26 22:29:49;;;;;;;5.40;2.67;;;17.40;61.40;;;;;;20756423;28;20081;-53
2021/04/26 22:39:51;;;;;;;6.30;2.85;;;17.30;62.10;;;;;;20756020;28;20054;-52
2021/04/26 22:49:53;;;;;;;5.50;2.50;;;17.20;62.60;;;;;;20754543;28;20148;-53
2021/04/26 22:59:55;;;;;;;4.18;2.47;;;16.90;63.40;;;;;;20754128;28;20054;-54
2021/04/26 23:09:57;;;;;;;4.20;2.03;;;16.90;63.60;;;;;;20752480;28;20089;-51
2021/04/26 23:20:01;;;;;;;5.03;2.00;;;16.70;63.60;;;;;;20753032;28;20042;-53
2021/04/26 23:30:05;;;;;;;3.75;2.08;;;16.60;63.40;;;;;;20751638;28;20042;-52
2021/04/26 23:40:09;;;;;;;3.40;2.05;;;16.60;63.50;;;;;;20750208;28;20056;-52
2021/04/26 23:50:11;;;;;;;2.53;1.70;;;16.40;63.80;;;;;;20750764;28;20391;-52
